Time;durP1;ratioP1;P1;durP2;ratioP2;P2;SDS_P1;SDS_P2;PMS_P1;PMS_P2;Temp;Humidity;BMP_temperature;BMP_pressure;BME280_temperature;BME280_humidity;BME280_pressure;Samples;Min_cycle;Max_cycle;Signal;HPM_P1;HPM_P2
2021/11/01 00:00:37;;;;;;;;;;;;;;;20.79;53.49;98952.22;7281086;19;152215;-51
2021/11/01 00:03:05;;;;;;;;;;;;;;;20.81;53.17;98960.25;7284108;19;154023;-51
2021/11/01 00:05:33;;;;;;;;;;;;;;;20.82;53.13;98954.28;7282414;19;154034;-50
2021/11/01 00:08:00;;;;;;;;;;;;;;;20.84;53.29;98956.75;7285377;19;152057;-51
2021/11/01 00:10:27;;;;;;;;;;;;;;;20.84;52.81;98949.16;7284206;19;151997;-51
2021/11/01 00:12:54;;;;;;;;;;;;;;;20.85;52.58;98953.56;7284713;19;154135;-51
2021/11/01 00:15:21;;;;;;;;;;;;;;;20.87;52.52;98961.63;7285441;19;152062;-51
2021/11/01 00:17:48;;;;;;;;;;;;;;;20.85;52.46;98950.75;7289953;19;153423;-51
2021/11/01 00:20:17;;;;;;;;;;;;;;;20.87;52.33;98953.22;7284975;19;151841;-51
2021/11/01 00:22:44;;;;;;;;;;;;;;;20.88;51.75;98948.44;7284534;19;152625;-50
2021/11/01 00:25:12;;;;;;;;;;;;;;;20.86;52.09;98945.97;7283927;19;152282;-51
2021/11/01 00:27:39;;;;;;;;;;;;;;;20.88;51.99;98945.63;7283144;19;151974;-51
2021/11/01 00:30:07;;;;;;;;;;;;;;;20.88;51.87;98951.22;7283160;19;152618;-51
2021/11/01 00:32:34;;;;;;;;;;;;;;;20.91;52.02;98942.06;7284271;19;153760;-51
2021/11/01 00:35:02;;;;;;;;;;;;;;;20.90;51.68;98935.66;7284192;19;152847;-50
2021/11/01 00:37:29;;;;;;;;;;;;;;;20.89;51.63;98942.47;7286808;19;152682;-51
2021/11/01 00:39:58;;;;;;;;;;;;;;;20.92;51.31;98946.53;7279161;19;152680;-51
2021/11/01 00:42:26;;;;;;;;;;;;;;;20.91;51.64;98951.31;7279315;19;152609;-51
2021/11/01 00:44:53;;;;;;;;;;;;;;;20.95;51.66;98957.84;7280166;19;153310;-52
2021/11/01 00:47:20;;;;;;;;;;;;;;;20.94;51.54;98955.41;7280849;19;151893;-51
2021/11/01 00:49:47;;;;;;;;;;;;;;;20.94;51.24;98955.41;7280023;19;152727;-52
2021/11/01 00:52:19;;;;;;;;;;;;;;;20.95;50.95;98959.84;7281089;19;153766;-51
2021/11/01 00:54:47;;;;;;;;;;;;;;;20.94;50.69;98963.84;7280258;19;152235;-51
2021/11/01 00:57:14;;;;;;;;;;;;;;;20.93;51.12;98956.59;7278465;19;153115;-51
2021/11/01 00:59:41;;;;;;;;;;;;;;;20.92;50.85;98955.75;7288454;19;153355;-51
2021/11/01 01:02:10;;;;;;;;;;;;;;;20.91;51.00;98956.94;7276842;19;153325;-51
2021/11/01 01:04:37;;;;;;;;;;;;;;;20.90;50.71;98952.50;7278750;19;153406;-51
2021/11/01 01:07:06;;;;;;;;;;;;;;;20.90;50.46;98946.06;7281559;19;151980;-51
2021/11/01 01:09:33;;;;;;;;;;;;;;;20.89;50.99;98933.22;7277714;19;153836;-50
2021/11/01 01:12:00;;;;;;;;;;;;;;;20.88;50.94;98942.81;7279099;19;153748;-51
2021/11/01 01:14:30;;;;;;;;;;;;;;;20.86;50.87;98938.38;7281139;19;152157;-51
2021/11/01 01:17:00;;;;;;;;;;;;;;;20.85;51.00;98933.09;7278975;19;152777;-51
2021/11/01 01:19:34;;;;;;;;;;;;;;;20.83;51.02;98933.47;7278506;19;153562;-52
2021/11/01 01:24:32;;;;;;;;;;;;;;;20.82;50.95;98945.06;7282507;19;153847;-51
2021/11/01 01:26:59;;;;;;;;;;;;;;;20.75;50.90;98940.06;7280523;19;152256;-52
2021/11/01 01:29:26;;;;;;;;;;;;;;;20.78;50.66;98953.38;7280613;19;152139;-51
2021/11/01 01:31:53;;;;;;;;;;;;;;;20.77;51.08;98946.13;7282173;19;152775;-52
2021/11/01 01:34:21;;;;;;;;;;;;;;;20.76;51.15;98952.91;7283489;19;151829;-51
2021/11/01 01:36:50;;;;;;;;;;;;;;;20.75;51.25;98942.88;7282106;19;153958;-51
2021/11/01 01:39:17;;;;;;;;;;;;;;;20.73;51.72;98942.41;7281760;19;154126;-51
2021/11/01 01:41:45;;;;;;;;;;;;;;;20.70;51.55;98937.53;7281706;19;151953;-51
2021/11/01 01:44:13;;;;;;;;;;;;;;;20.69;51.59;98941.50;7288390;19;153486;-51
2021/11/01 01:46:40;;;;;;;;;;;;;;;20.69;51.34;98940.69;7280736;19;151965;-51
2021/11/01 01:49:07;;;;;;;;;;;;;;;20.66;51.27;98936.63;7283515;19;152778;-51
2021/11/01 01:51:35;;;;;;;;;;;;;;;20.67;51.46;98943.84;7281748;19;154280;-51
2021/11/01 01:54:02;;;;;;;;;;;;;;;20.66;51.29;98941.41;7281098;19;151810;-52
2021/11/01 01:56:30;;;;;;;;;;;;;;;20.65;51.31;98943.41;7280554;19;153471;-51
2021/11/01 01:59:02;;;;;;;;;;;;;;;20.65;51.58;98945.38;7279429;19;153374;-51
2021/11/01 02:01:29;;;;;;;;;;;;;;;20.62;51.53;98941.31;7277803;19;153226;-51
2021/11/01 02:03:57;;;;;;;;;;;;;;;20.59;51.40;98950.44;7282373;19;152669;-51
2021/11/01 02:06:30;;;;;;;;;;;;;;;20.55;51.40;98949.50;7284766;19;154838;-51
2021/11/01 02:09:01;;;;;;;;;;;;;;;20.50;50.96;98946.97;7283219;19;152857;-51
2021/11/01 02:11:32;;;;;;;;;;;;;;;20.52;51.23;98939.03;7280621;19;153177;-50
2021/11/01 02:14:00;;;;;;;;;;;;;;;20.49;51.37;98933.31;7280874;19;152086;-51
2021/11/01 02:16:29;;;;;;;;;;;;;;;20.47;51.49;98932.84;7279649;19;153622;-51
2021/11/01 02:18:56;;;;;;;;;;;;;;;20.41;51.05;98937.88;7277170;19;153819;-51
2021/11/01 02:21:26;;;;;;;;;;;;;;;20.42;51.18;98940.34;7280166;19;151831;-51
2021/11/01 02:24:02;;;;;;;;;;;;;;;20.35;51.55;98934.50;7280492;19;152782;-51
2021/11/01 02:26:29;;;;;;;;;;;;;;;20.35;51.32;98931.69;7281128;19;153623;-51
2021/11/01 02:28:56;;;;;;;;;;;;;;;20.33;51.34;98928.44;7287795;19;152334;-51
2021/11/01 02:31:24;;;;;;;;;;;;;;;20.35;51.37;98925.31;7279049;19;152229;-51
2021/11/01 02:33:51;;;;;;;;;;;;;;;20.32;51.50;98928.81;7280084;19;152003;-51
2021/11/01 02:36:18;;;;;;;;;;;;;;;20.29;51.14;98933.13;7277821;19;153620;-51
2021/11/01 02:38:51;;;;;;;;;;;;;;;20.26;51.16;98921.81;7276954;19;153666;-51
2021/11/01 02:41:19;;;;;;;;;;;;;;;20.29;50.81;98923.88;7282006;19;152296;-51
2021/11/01 02:43:49;;;;;;;;;;;;;;;20.28;51.03;98914.66;7279765;19;152819;-51
2021/11/01 02:46:16;;;;;;;;;;;;;;;20.25;51.05;98917.34;7277884;19;153296;-51
2021/11/01 02:48:45;;;;;;;;;;;;;;;20.20;51.29;98921.22;7288740;19;152404;-51
2021/11/01 02:51:13;;;;;;;;;;;;;;;20.15;51.33;98909.44;7279365;19;153817;-51
2021/11/01 02:53:41;;;;;;;;;;;;;;;20.15;51.33;98921.47;7279050;19;152145;-51
2021/11/01 02:56:09;;;;;;;;;;;;;;;20.13;51.11;98918.19;7281723;19;153517;-50
2021/11/01 02:58:40;;;;;;;;;;;;;;;20.09;51.31;98924.88;7277595;19;153969;-50
2021/11/01 03:01:08;;;;;;;;;;;;;;;20.06;51.37;98928.38;7278143;19;152100;-51
2021/11/01 03:03:37;;;;;;;;;;;;;;;20.04;51.18;98920.31;7279125;19;153409;-50
2021/11/01 03:06:04;;;;;;;;;;;;;;;20.03;51.63;98926.31;7280315;19;154041;-50
2021/11/01 03:08:32;;;;;;;;;;;;;;;20.00;51.44;98925.00;7276956;19;151768;-51
2021/11/01 03:11:00;;;;;;;;;;;;;;;20.02;51.89;98935.88;7285749;19;152631;-51
2021/11/01 03:13:28;;;;;;;;;;;;;;;19.97;51.73;98932.16;7279561;19;151757;-51
2021/11/01 03:15:56;;;;;;;;;;;;;;;19.94;51.64;98935.66;7279977;19;153122;-50
2021/11/01 03:18:27;;;;;;;;;;;;;;;19.95;51.77;98945.69;7278064;19;154065;-51
2021/11/01 03:20:55;;;;;;;;;;;;;;;19.92;51.61;98943.59;7280158;19;152505;-51
2021/11/01 03:23:25;;;;;;;;;;;;;;;19.89;51.90;98943.50;7278954;19;152067;-51
2021/11/01 03:25:56;;;;;;;;;;;;;;;19.89;52.04;98958.34;7277304;19;153844;-50
2021/11/01 03:28:23;;;;;;;;;;;;;;;19.86;51.67;98942.19;7279625;19;151822;-51
2021/11/01 03:30:52;;;;;;;;;;;;;;;19.85;51.87;98953.78;7279267;19;152756;-51
2021/11/01 03:33:21;;;;;;;;;;;;;;;19.84;52.12;98954.94;7292605;19;153819;-51
2021/11/01 03:35:49;;;;;;;;;;;;;;;19.84;52.02;98954.94;7286980;19;153141;-51
2021/11/01 03:38:16;;;;;;;;;;;;;;;19.82;52.34;98957.28;7284029;19;153283;-51
2021/11/01 03:40:47;;;;;;;;;;;;;;;19.83;52.56;98962.53;7286395;19;152314;-51
2021/11/01 03:43:25;;;;;;;;;;;;;;;19.80;52.63;98965.22;7284824;19;152788;-51
2021/11/01 03:45:53;;;;;;;;;;;;;;;19.80;52.37;98963.25;7285331;19;154060;-51
2021/11/01 03:48:21;;;;;;;;;;;;;;;19.80;52.18;98968.03;7286012;19;151528;-51
2021/11/01 03:50:59;;;;;;;;;;;;;;;19.77;52.42;98963.13;7285687;19;153298;-51
2021/11/01 03:53:26;;;;;;;;;;;;;;;19.75;52.37;98963.50;7284841;19;153776;-51
2021/11/01 03:55:53;;;;;;;;;;;;;;;19.74;52.33;98973.06;7291127;19;151927;-51
2021/11/01 03:58:20;;;;;;;;;;;;;;;19.73;52.74;98965.81;7283674;19;152148;-51
2021/11/01 04:00:47;;;;;;;;;;;;;;;19.72;52.92;98969.78;7285004;19;152101;-51
2021/11/01 04:03:14;;;;;;;;;;;;;;;19.71;52.79;98968.16;7286230;19;153560;-51
2021/11/01 04:05:41;;;;;;;;;;;;;;;19.71;53.06;98975.75;7285044;19;151977;-51
2021/11/01 04:08:08;;;;;;;;;;;;;;;19.69;52.66;98981.69;7285734;19;152256;-51
2021/11/01 04:10:35;;;;;;;;;;;;;;;19.65;53.32;98980.75;7283077;19;153462;-50
2021/11/01 04:13:02;;;;;;;;;;;;;;;19.65;52.79;98986.38;7283553;19;154147;-50
2021/11/01 04:15:29;;;;;;;;;;;;;;;19.64;52.67;98983.91;7285989;19;151924;-51
2021/11/01 04:18:01;;;;;;;;;;;;;;;19.69;52.96;98976.09;7288311;19;153299;-50
2021/11/01 04:20:36;;;;;;;;;;;;;;;19.62;52.89;98975.06;7284071;19;151957;-51
2021/11/01 04:23:08;;;;;;;;;;;;;;;19.62;52.97;98970.25;7282861;19;152062;-51
2021/11/01 04:25:35;;;;;;;;;;;;;;;19.61;53.65;98974.22;7279920;19;155028;-51
2021/11/01 04:28:02;;;;;;;;;;;;;;;19.58;53.30;98977.72;7286419;19;152293;-51
2021/11/01 04:30:37;;;;;;;;;;;;;;;19.59;53.48;98984.13;7287321;19;152565;-51
2021/11/01 04:33:05;;;;;;;;;;;;;;;19.57;53.26;98986.47;7285716;19;153534;-51
2021/11/01 04:35:35;;;;;;;;;;;;;;;19.55;53.29;98984.03;7286696;19;151571;-50
2021/11/01 04:38:13;;;;;;;;;;;;;;;19.56;53.49;98980.06;7287761;19;153327;-51
2021/11/01 04:53:14;;;;;;;;;;;;;;;19.49;53.86;98997.44;7286270;19;153391;-51
2021/11/01 04:55:42;;;;;;;;;;;;;;;19.51;53.96;98989.50;7287516;19;151867;-51
2021/11/01 04:58:09;;;;;;;;;;;;;;;19.52;53.65;99004.34;7285217;19;153297;-51
2021/11/01 05:00:38;;;;;;;;;;;;;;;19.49;54.41;98999.41;7291615;19;154437;-51
2021/11/01 05:05:33;;;;;;;;;;;;;;;19.44;54.09;98997.66;7286806;19;154262;-50
2021/11/01 05:08:01;;;;;;;;;;;;;;;19.48;54.39;98998.63;7287420;19;151719;-51
2021/11/01 05:10:33;;;;;;;;;;;;;;;19.46;54.46;99000.94;7287865;19;152683;-51
2021/11/01 05:13:04;;;;;;;;;;;;;;;19.45;54.09;98992.88;7285772;19;152302;-52
2021/11/01 05:15:39;;;;;;;;;;;;;;;19.43;54.32;98998.84;7287113;19;152427;-51
2021/11/01 05:35:26;;;;;;;;;;;;;;;19.36;54.25;99004.16;7287015;19;151684;-51
2021/11/01 05:37:53;;;;;;;;;;;;;;;19.35;53.97;99010.91;7285334;19;152740;-51
2021/11/01 05:40:20;;;;;;;;;;;;;;;19.35;53.94;99010.13;7283339;19;153394;-51
2021/11/01 05:42:47;;;;;;;;;;;;;;;19.35;54.13;99007.31;7285475;19;151906;-50
2021/11/01 05:45:15;;;;;;;;;;;;;;;19.33;54.15;99016.06;7293002;19;153337;-51
2021/11/01 05:47:45;;;;;;;;;;;;;;;19.32;54.39;99024.81;7286169;19;152027;-51
2021/11/01 05:50:12;;;;;;;;;;;;;;;19.32;54.58;99027.59;7286412;19;152711;-51
2021/11/01 05:52:42;;;;;;;;;;;;;;;19.32;54.51;99038.81;7283307;19;154177;-51
2021/11/01 05:55:18;;;;;;;;;;;;;;;19.28;54.56;99032.25;7285833;19;152070;-51
2021/11/01 06:03:01;;;;;;;;;;;;;;;19.28;54.39;99032.25;7285571;19;151799;-50
2021/11/01 06:15:27;;;;;;;;;;;;;;;19.24;55.31;99048.13;7283507;19;152042;-52
2021/11/01 06:17:55;;;;;;;;;;;;;;;19.23;54.99;99054.88;7285010;19;153262;-51
2021/11/01 06:20:23;;;;;;;;;;;;;;;19.24;54.99;99057.34;7279099;19;154116;-51
2021/11/01 06:22:50;;;;;;;;;;;;;;;19.30;55.41;99049.56;7282688;19;152148;-51
2021/11/01 06:25:18;;;;;;;;;;;;;;;19.38;55.62;99057.84;7282856;19;153457;-51
2021/11/01 06:27:47;;;;;;;;;;;;;;;19.42;56.02;99057.97;7283755;19;153805;-50
2021/11/01 06:32:48;;;;;;;;;;;;;;;19.51;56.35;99061.50;7282020;19;154266;-51
2021/11/01 07:15:39;;;;;;;;;;;;;;;20.24;56.58;99118.44;7283231;19;152293;-51
2021/11/01 09:28:32;;;;;;;;;;;;;;;20.55;48.05;99193.59;7281815;19;154425;-51
2021/11/01 09:43:33;;;;;;;;;;;;;;;20.48;47.77;99203.78;7280675;19;152705;-52
2021/11/01 09:46:01;;;;;;;;;;;;;;;20.45;47.97;99207.28;7287058;19;151803;-52
2021/11/01 09:48:29;;;;;;;;;;;;;;;20.45;47.26;99218.50;7291787;19;152563;-50
2021/11/01 09:50:56;;;;;;;;;;;;;;;20.44;47.98;99216.88;7286341;19;151691;-52
2021/11/01 09:53:28;;;;;;;;;;;;;;;20.44;48.11;99217.72;7285118;19;153287;-51
2021/11/01 10:01:09;;;;;;;;;;;;;;;20.41;47.89;99226.81;7283260;19;152578;-52
2021/11/01 10:03:39;;;;;;;;;;;;;;;20.39;48.07;99240.38;7282641;19;152932;-53
2021/11/01 10:06:07;;;;;;;;;;;;;;;20.36;47.80;99241.88;7285121;19;152329;-52
2021/11/01 10:08:35;;;;;;;;;;;;;;;20.39;47.98;99232.78;7286345;19;152775;-51
2021/11/01 10:11:12;;;;;;;;;;;;;;;20.38;47.83;99244.34;7292516;19;154814;-52
2021/11/01 10:13:39;;;;;;;;;;;;;;;20.37;47.76;99240.72;7285884;19;152829;-52
2021/11/01 10:18:42;;;;;;;;;;;;;;;20.35;47.97;99234.63;7285765;19;151914;-52
2021/11/01 10:21:10;;;;;;;;;;;;;;;20.35;48.00;99242.25;7281997;19;153561;-52
2021/11/01 10:23:44;;;;;;;;;;;;;;;20.35;48.24;99239.44;7283913;19;154511;-51
2021/11/01 10:26:16;;;;;;;;;;;;;;;20.32;47.94;99243.75;7283397;19;151769;-51
2021/11/01 10:28:44;;;;;;;;;;;;;;;20.34;48.24;99251.81;7284306;19;152412;-51
2021/11/01 10:31:13;;;;;;;;;;;;;;;20.35;48.18;99256.28;7282582;19;153474;-50
2021/11/01 10:33:44;;;;;;;;;;;;;;;20.32;47.99;99259.75;7291167;19;153617;-51
2021/11/01 10:36:12;;;;;;;;;;;;;;;20.31;47.97;99253.31;7283237;19;153587;-51
2021/11/01 10:38:42;;;;;;;;;;;;;;;20.28;48.08;99256.78;7269377;19;151857;-51
2021/11/01 11:16:35;;;;;;;;;;;;;;;20.19;48.21;99266.47;7285695;19;153305;-51
2021/11/01 11:37:23;;;;;;;;;;;;;;;20.13;48.54;99265.88;7283665;19;151977;-50
2021/11/01 11:49:26;;;;;;;;;;;;;;;20.01;48.06;99274.25;7283096;19;153658;-51
2021/11/01 11:51:54;;;;;;;;;;;;;;;20.03;47.88;99276.72;7280653;19;153989;-51
2021/11/01 11:54:25;;;;;;;;;;;;;;;20.01;48.27;99285.47;7290103;19;151748;-51
2021/11/01 11:56:53;;;;;;;;;;;;;;;20.01;48.21;99279.84;7289809;19;152903;-51
2021/11/01 11:59:30;;;;;;;;;;;;;;;19.97;48.09;99281.72;7287187;19;153453;-51
2021/11/01 12:01:57;;;;;;;;;;;;;;;19.96;48.39;99275.28;7294663;19;152048;-51
2021/11/01 12:04:31;;;;;;;;;;;;;;;20.01;47.98;99277.06;7288602;19;152900;-52
2021/11/01 12:07:01;;;;;;;;;;;;;;;20.03;48.08;99273.91;7287822;19;153358;-51
2021/11/01 12:19:32;;;;;;;;;;;;;;;19.89;48.15;99277.84;7286936;19;154389;-51
2021/11/01 12:22:02;;;;;;;;;;;;;;;19.91;48.24;99283.09;7285344;19;152077;-50
2021/11/01 12:24:29;;;;;;;;;;;;;;;19.90;48.19;99281.44;7293797;19;152852;-51
2021/11/01 12:26:59;;;;;;;;;;;;;;;19.90;48.20;99276.66;7289338;19;151972;-51
2021/11/01 12:29:27;;;;;;;;;;;;;;;19.89;48.23;99268.63;7289254;19;152977;-51
2021/11/01 12:31:58;;;;;;;;;;;;;;;19.88;48.03;99262.19;7288194;19;152608;-51
2021/11/01 12:34:25;;;;;;;;;;;;;;;19.90;48.03;99268.25;7287128;19;152413;-51
2021/11/01 12:37:01;;;;;;;;;;;;;;;19.88;48.39;99264.16;7289052;19;151995;-51
2021/11/01 12:47:39;;;;;;;;;;;;;;;19.82;48.23;99254.31;7290503;19;154144;-51
2021/11/01 12:57:25;;;;;;;;;;;;;;;19.75;48.36;99257.72;7287977;19;154177;-49
2021/11/01 12:59:52;;;;;;;;;;;;;;;19.80;47.88;99268.72;7283879;19;153831;-50
2021/11/01 13:02:22;;;;;;;;;;;;;;;19.81;48.08;99261.09;7285970;19;152145;-49
2021/11/01 13:04:55;;;;;;;;;;;;;;;19.79;47.97;99261.47;7284213;19;151829;-50
2021/11/01 13:09:57;;;;;;;;;;;;;;;19.78;48.07;99292.63;7293075;19;151810;-49
2021/11/01 13:20:07;;;;;;;;;;;;;;;19.77;48.78;99289.00;7284273;19;154337;-51
2021/11/01 13:22:37;;;;;;;;;;;;;;;19.79;49.19;99292.28;7285106;19;152247;-52
2021/11/01 13:37:37;;;;;;;;;;;;;;;20.04;49.31;99286.75;7286548;19;153497;-51
2021/11/01 13:40:06;;;;;;;;;;;;;;;20.09;49.30;99281.75;7286456;19;153801;-51
2021/11/01 13:42:35;;;;;;;;;;;;;;;20.11;49.27;99279.44;7283707;19;153231;-52
2021/11/01 13:45:05;;;;;;;;;;;;;;;20.14;49.61;99284.34;7285434;19;152774;-51
2021/11/01 13:47:35;;;;;;;;;;;;;;;20.17;49.48;99283.63;7283515;19;154886;-52
2021/11/01 13:50:06;;;;;;;;;;;;;;;20.22;49.74;99282.59;7286837;19;151845;-52
2021/11/01 13:57:44;;;;;;;;;;;;;;;20.32;49.45;99265.34;7287136;19;153443;-52
2021/11/01 14:00:25;;;;;;;;;;;;;;;20.36;49.39;99281.16;7285172;19;154143;-51
2021/11/01 14:28:11;;;;;;;;;;;;;;;20.79;47.78;99265.75;7284449;19;154131;-51
2021/11/01 15:01:11;;;;;;;;;;;;;;;20.97;47.92;99278.38;7290259;19;153253;-50
2021/11/01 15:36:09;;;;;;;;;;;;;;;21.00;48.46;99283.28;7282424;19;152641;-50
2021/11/01 16:18:48;;;;;;;;;;;;;;;20.85;48.11;99298.00;7283475;19;152094;-50
2021/11/01 16:21:18;;;;;;;;;;;;;;;20.84;48.07;99300.03;7281602;19;152235;-51
2021/11/01 16:23:45;;;;;;;;;;;;;;;20.82;48.30;99304.34;7277653;19;153014;-51
2021/11/01 16:28:45;;;;;;;;;;;;;;;20.80;48.13;99299.06;7288873;19;152989;-50
2021/11/01 16:33:45;;;;;;;;;;;;;;;20.79;48.10;99305.88;7282830;19;154056;-51
2021/11/01 16:36:40;;;;;;;;;;;;;;;20.79;48.52;99308.69;7280657;19;153670;-51
2021/11/01 16:39:08;;;;;;;;;;;;;;;20.78;48.41;99303.41;7282636;19;152985;-51
2021/11/01 16:41:35;;;;;;;;;;;;;;;20.78;48.67;99320.25;7287717;19;152639;-50
2021/11/01 16:44:15;;;;;;;;;;;;;;;20.75;48.89;99316.16;7283790;19;153323;-51
2021/11/01 16:46:43;;;;;;;;;;;;;;;20.75;48.74;99320.97;7287388;19;152392;-50
2021/11/01 16:49:11;;;;;;;;;;;;;;;20.74;48.99;99322.13;7287833;19;154554;-51
2021/11/01 16:51:38;;;;;;;;;;;;;;;20.73;49.22;99329.72;7293489;19;153566;-50
2021/11/01 16:54:08;;;;;;;;;;;;;;;20.71;49.19;99329.28;7286339;19;153223;-51
2021/11/01 17:02:06;;;;;;;;;;;;;;;20.68;49.08;99341.16;7283646;19;152024;-51
2021/11/01 17:04:35;;;;;;;;;;;;;;;20.66;49.17;99340.72;7283708;19;154007;-51
2021/11/01 17:07:10;;;;;;;;;;;;;;;20.66;49.01;99340.72;7286739;19;152133;-50
2021/11/01 17:09:59;;;;;;;;;;;;;;;20.64;49.47;99345.03;7286812;19;153470;-50
2021/11/01 17:30:14;;;;;;;;;;;;;;;20.48;49.48;99360.91;7288247;19;152863;-51
2021/11/01 17:35:25;;;;;;;;;;;;;;;20.47;49.83;99368.50;7293657;19;152171;-51
2021/11/01 18:43:47;;;;;;;;;;;;;;;19.97;50.84;99408.69;7291462;19;151758;-51
2021/11/01 18:51:15;;;;;;;;;;;;;;;19.90;51.11;99404.78;7285692;19;152976;-51
2021/11/01 18:53:43;;;;;;;;;;;;;;;19.91;51.13;99404.44;7282380;19;154303;-50
2021/11/01 18:56:11;;;;;;;;;;;;;;;19.91;50.97;99406.41;7283029;19;152008;-51
2021/11/01 18:58:41;;;;;;;;;;;;;;;19.88;51.05;99419.16;7283263;19;153211;-51
2021/11/01 19:01:09;;;;;;;;;;;;;;;19.88;51.33;99412.72;7281003;19;155904;-51
2021/11/01 19:03:42;;;;;;;;;;;;;;;19.88;51.04;99416.34;7282579;19;152028;-51
2021/11/01 19:12:13;;;;;;;;;;;;;;;19.82;51.24;99414.91;7282952;19;152665;-51
2021/11/01 19:17:49;;;;;;;;;;;;;;;19.84;51.29;99420.16;7280614;19;152051;-51
2021/11/01 20:05:29;;;;;;;;;;;;;;;19.67;52.12;99448.31;7279401;19;152199;-51
2021/11/01 20:13:13;;;;;;;;;;;;;;;19.64;52.30;99447.00;7287595;19;151832;-51
2021/11/01 20:15:59;;;;;;;;;;;;;;;19.66;52.65;99463.47;7285530;19;153279;-51
2021/11/01 21:26:40;;;;;;;;;;;;;;;20.47;52.13;99471.47;7284647;19;152151;-50
2021/11/01 21:29:07;;;;;;;;;;;;;;;20.48;52.40;99476.75;7287726;19;152853;-50
2021/11/01 21:31:35;;;;;;;;;;;;;;;20.51;52.33;99467.63;7284786;19;154166;-50
2021/11/01 21:34:02;;;;;;;;;;;;;;;20.55;52.47;99465.78;7285405;19;151925;-51
2021/11/01 21:36:32;;;;;;;;;;;;;;;20.60;52.44;99464.75;7286786;19;153895;-51
2021/11/01 21:38:59;;;;;;;;;;;;;;;20.64;52.56;99463.72;7284724;19;153267;-50
2021/11/01 21:41:26;;;;;;;;;;;;;;;20.68;53.02;99464.66;7284121;19;151985;-51
2021/11/01 21:43:54;;;;;;;;;;;;;;;20.75;51.86;99464.09;7292937;19;151735;-51
2021/11/01 21:46:21;;;;;;;;;;;;;;;20.75;52.41;99467.75;7280940;19;152271;-51
2021/11/01 21:48:49;;;;;;;;;;;;;;;20.76;52.11;99466.53;7285737;19;153459;-51
2021/11/01 21:51:17;;;;;;;;;;;;;;;20.77;52.19;99467.38;7283618;19;153780;-51
2021/11/01 21:53:51;;;;;;;;;;;;;;;20.79;51.72;99465.88;7285903;19;152684;-51
2021/11/01 21:56:20;;;;;;;;;;;;;;;20.82;51.94;99461.53;7286847;19;151995;-50
2021/11/01 22:21:23;;;;;;;;;;;;;;;20.98;51.86;99470.13;7284759;19;152812;-51
2021/11/01 22:41:44;;;;;;;;;;;;;;;20.98;52.20;99461.72;7283757;19;151902;-55
2021/11/01 22:44:35;;;;;;;;;;;;;;;20.98;51.74;99470.13;7285637;19;152647;-51
2021/11/01 22:57:24;;;;;;;;;;;;;;;21.00;52.59;99473.41;7285352;19;152651;-50
2021/11/01 22:59:51;;;;;;;;;;;;;;;21.00;52.33;99479.84;7281273;19;153565;-50
2021/11/01 23:02:18;;;;;;;;;;;;;;;20.98;52.44;99481.38;7283028;19;152025;-50
2021/11/01 23:33:05;;;;;;;;;;;;;;;20.94;52.62;99500.06;7282826;19;152639;-50
2021/11/01 23:35:32;;;;;;;;;;;;;;;20.94;53.08;99498.06;7288709;19;153323;-50
2021/11/01 23:38:01;;;;;;;;;;;;;;;20.92;53.20;99503.22;7282188;19;153925;-50
2021/11/01 23:40:28;;;;;;;;;;;;;;;20.90;53.12;99507.53;7281085;19;153705;-50
2021/11/01 23:42:54;;;;;;;;;;;;;;;20.89;53.32;99500.28;7282277;19;152263;-50
2021/11/01 23:45:22;;;;;;;;;;;;;;;20.86;53.42;99497.00;7283271;19;152768;-50
2021/11/01 23:47:48;;;;;;;;;;;;;;;20.87;53.33;99497.81;7282587;19;154227;-50
2021/11/01 23:50:15;;;;;;;;;;;;;;;20.86;53.15;99496.19;7289549;19;152025;-50
2021/11/01 23:52:54;;;;;;;;;;;;;;;20.84;52.96;99493.72;7289654;19;153442;-50
2021/11/01 23:55:21;;;;;;;;;;;;;;;20.83;52.72;99494.06;7287685;19;153603;-50
2021/11/01 23:57:48;;;;;;;;;;;;;;;20.81;53.16;99491.59;7295618;19;151991;-50
